Darin Adrian — WDE6485 — position and weather

sailwx.info

Track history (hours):
 
Tides and Currents Weather Stations Pressure Air Temp Water Temp Dewpoint Dewpoint Depression Visibility Wind Speed Wind Dir Waves Ship Positions

Darin Adrian

Owner: Marquette Transportation Company LLC, Paducah, KY. More information available from US FCC via Universal Licensing System and Coast Guard Vessel Documentation Center.

Last reported at 2017-Nov-11 21:42 UTC. Time now 2017-Nov-21 11:37 UTC.
Position N 31°59' W 091°06'.
Warning: this ship's position is 9 days out of date.

Length 50 m; draft 3.4 m.

Type: Towing. MMSI: 367380840.

Date/timePositionNaut miles runAvg speedWind from/ knotsBaromVisibWave heightAir tempDewpointWater temp
2017-Nov-11 21:42N 31°59' W 091°06'2 8.9
2017-Nov-11 21:30N 32°01' W 091°05'6 8.0
2017-Nov-11 20:47N 32°06' W 091°06'2 5.5
2017-Nov-11 20:30N 32°08' W 091°06'4 8.0
2017-Nov-11 20:00N 32°07' W 091°01'4 8.3
2017-Nov-11 19:30N 32°11' W 090°60'5 9.4
2017-Nov-11 19:01N 32°16' W 090°58'4 8.9
2017-Nov-11 18:31N 32°19' W 090°54'3 5.5
2017-Nov-11 18:01N 32°21' W 090°56'4 7.0
2017-Nov-11 17:31N 32°22' W 091°00'4 7.5
2017-Nov-11 17:01N 32°26' W 091°02'5 9.1
2017-Nov-11 16:30N 32°28' W 091°06'5 8.9
2017-Nov-11 15:57N 32°33' W 091°06'4 9.2
2017-Nov-11 15:30N 32°36' W 091°09'8 7.2
2017-Nov-11 14:20N 32°44' W 091°04'4 8.5
2017-Nov-11 13:54N 32°44' W 091°08'  
Track history (hours):
 
Tides and Currents Weather Stations Pressure Air Temp Water Temp Dewpoint Dewpoint Depression Visibility Wind Speed Wind Dir Waves Ship Positions

Darin Adrian

Owner: Marquette Transportation Company LLC, Paducah, KY. More information available from US FCC via Universal Licensing System and Coast Guard Vessel Documentation Center.

Last reported at 2017-Nov-11 21:42 UTC. Time now 2017-Nov-21 11:37 UTC.
Position N 31°59' W 091°06'.
Warning: this ship's position is 9 days out of date.

Length 50 m; draft 3.4 m.

Type: Towing. MMSI: 367380840.

Date/timePositionNaut miles runAvg speedWind from/ knotsBaromVisibWave heightAir tempDewpointWater temp
2017-Nov-11 21:42N 31°59' W 091°06'2 8.9
2017-Nov-11 21:30N 32°01' W 091°05'6 8.0
2017-Nov-11 20:47N 32°06' W 091°06'2 5.5
2017-Nov-11 20:30N 32°08' W 091°06'4 8.0
2017-Nov-11 20:00N 32°07' W 091°01'4 8.3
2017-Nov-11 19:30N 32°11' W 090°60'5 9.4
2017-Nov-11 19:01N 32°16' W 090°58'4 8.9
2017-Nov-11 18:31N 32°19' W 090°54'3 5.5
2017-Nov-11 18:01N 32°21' W 090°56'4 7.0
2017-Nov-11 17:31N 32°22' W 091°00'4 7.5
2017-Nov-11 17:01N 32°26' W 091°02'5 9.1
2017-Nov-11 16:30N 32°28' W 091°06'5 8.9
2017-Nov-11 15:57N 32°33' W 091°06'4 9.2
2017-Nov-11 15:30N 32°36' W 091°09'8 7.2
2017-Nov-11 14:20N 32°44' W 091°04'4 8.5
2017-Nov-11 13:54N 32°44' W 091°08'  

Dump ship's entire track history